createdAt,value
2018-08-22T00:00:42.116Z,19.30
2018-08-22T00:03:10.472Z,19.30
2018-08-22T00:05:38.780Z,19.30
2018-08-22T00:08:07.136Z,19.30
2018-08-22T00:10:35.455Z,19.20
2018-08-22T00:13:03.812Z,19.20
2018-08-22T00:15:32.124Z,19.20
2018-08-22T00:18:00.468Z,19.10
2018-08-22T00:20:28.791Z,19.10
2018-08-22T00:22:57.151Z,19.10
2018-08-22T00:25:25.546Z,19.10
2018-08-22T00:27:53.891Z,19.10
2018-08-22T00:30:22.231Z,19.10
2018-08-22T00:32:50.584Z,19.10
2018-08-22T00:35:18.931Z,19.00
2018-08-22T00:37:47.287Z,19.00
2018-08-22T00:40:15.620Z,19.00
2018-08-22T00:42:43.974Z,18.90
2018-08-22T00:45:12.293Z,19.00
2018-08-22T00:47:40.656Z,18.90
2018-08-22T00:50:08.968Z,18.80
2018-08-22T00:52:37.291Z,18.80
2018-08-22T00:55:05.648Z,18.70
2018-08-22T00:57:33.966Z,18.70
2018-08-22T01:00:02.372Z,18.70
2018-08-22T01:02:30.695Z,18.60
2018-08-22T01:04:59.044Z,18.60
2018-08-22T01:07:27.372Z,18.60
2018-08-22T01:09:55.732Z,18.50
2018-08-22T01:12:24.044Z,18.50
2018-08-22T01:14:52.391Z,18.40
2018-08-22T01:17:20.695Z,18.30
2018-08-22T01:19:49.136Z,18.20
2018-08-22T01:22:17.444Z,18.20
2018-08-22T01:24:45.895Z,18.20
2018-08-22T01:27:19.568Z,18.20
2018-08-22T01:29:47.921Z,18.20
2018-08-22T01:32:16.237Z,18.20
2018-08-22T01:34:44.588Z,18.20
2018-08-22T01:37:12.897Z,18.10
2018-08-22T01:39:41.232Z,18.10
2018-08-22T01:42:09.535Z,18.00
2018-08-22T01:44:37.875Z,17.90
2018-08-22T01:47:06.204Z,17.90
2018-08-22T01:49:34.548Z,17.80
2018-08-22T01:52:03.164Z,17.80
2018-08-22T01:54:31.524Z,17.80
2018-08-22T01:56:59.876Z,17.70
2018-08-22T01:59:28.236Z,17.70
2018-08-22T02:01:56.565Z,17.70
2018-08-22T02:04:24.929Z,17.60
2018-08-22T02:06:53.236Z,17.60
2018-08-22T02:09:21.579Z,17.60
2018-08-22T02:11:49.886Z,17.50
2018-08-22T02:14:18.240Z,17.50
2018-08-22T02:16:46.589Z,17.50
2018-08-22T02:19:14.939Z,17.50
2018-08-22T02:21:43.255Z,17.50
2018-08-22T02:24:11.588Z,17.50
2018-08-22T02:26:39.933Z,17.40
2018-08-22T02:29:08.280Z,17.40
2018-08-22T02:31:36.605Z,17.30
2018-08-22T02:34:04.958Z,17.30
2018-08-22T02:36:33.372Z,17.20
2018-08-22T02:39:01.680Z,17.20
2018-08-22T02:41:30.027Z,17.20
2018-08-22T02:43:58.336Z,17.20
2018-08-22T02:46:26.678Z,17.20
2018-08-22T02:48:56.107Z,17.10
2018-08-22T02:51:24.919Z,17.00
2018-08-22T02:53:53.236Z,17.00
2018-08-22T02:56:22.099Z,17.00
2018-08-22T02:58:50.547Z,16.90
2018-08-22T03:01:19.060Z,16.90
2018-08-22T03:03:47.373Z,16.80
2018-08-22T03:06:15.725Z,16.80
2018-08-22T03:08:44.055Z,16.70
2018-08-22T03:11:12.488Z,16.70
2018-08-22T03:13:40.808Z,16.60
2018-08-22T03:16:09.143Z,16.60
2018-08-22T03:18:37.485Z,16.60
2018-08-22T03:21:05.834Z,16.50
2018-08-22T03:23:34.139Z,16.50
2018-08-22T03:26:02.563Z,16.50
2018-08-22T03:28:30.877Z,16.50
2018-08-22T03:30:59.213Z,16.40
2018-08-22T03:33:27.541Z,16.30
2018-08-22T03:35:55.879Z,16.30
2018-08-22T03:38:24.178Z,16.20
2018-08-22T03:40:52.523Z,16.20
2018-08-22T03:43:21.084Z,16.20
2018-08-22T03:45:49.424Z,16.20
2018-08-22T03:48:18.055Z,16.20
2018-08-22T03:50:46.391Z,16.10
2018-08-22T03:53:14.704Z,16.10
2018-08-22T03:55:43.043Z,16.10
2018-08-22T03:58:11.804Z,16.00
2018-08-22T04:00:40.180Z,16.00
2018-08-22T04:03:08.500Z,15.90
2018-08-22T04:05:36.844Z,15.90
2018-08-22T04:08:05.192Z,15.90
2018-08-22T04:10:33.540Z,15.90
2018-08-22T04:13:01.853Z,15.90
2018-08-22T04:15:30.204Z,15.80
2018-08-22T04:17:58.513Z,15.80
2018-08-22T04:20:26.852Z,15.80
2018-08-22T04:22:55.165Z,15.80
2018-08-22T04:25:23.545Z,15.70
2018-08-22T04:27:51.893Z,15.70
2018-08-22T04:30:20.259Z,15.70
2018-08-22T04:32:48.578Z,15.70
2018-08-22T04:35:16.887Z,15.70
2018-08-22T04:37:45.236Z,15.70
2018-08-22T04:40:13.549Z,15.70
2018-08-22T04:42:41.887Z,15.70
2018-08-22T04:45:10.207Z,15.70
2018-08-22T04:47:38.610Z,15.80
2018-08-22T04:50:06.958Z,15.80
2018-08-22T04:52:35.296Z,15.80
2018-08-22T04:55:03.653Z,15.80
2018-08-22T04:57:31.991Z,15.90
2018-08-22T05:00:00.317Z,15.90
2018-08-22T05:02:28.657Z,15.90
2018-08-22T05:04:57.133Z,15.90
2018-08-22T05:07:25.493Z,15.90
2018-08-22T05:09:53.796Z,15.90
2018-08-22T05:12:22.151Z,15.90
2018-08-22T05:14:50.464Z,15.90
2018-08-22T05:17:18.815Z,15.90
2018-08-22T05:19:47.119Z,16.00
2018-08-22T05:22:15.483Z,16.00
2018-08-22T05:24:43.848Z,16.10
2018-08-22T05:27:12.243Z,16.10
2018-08-22T05:29:40.557Z,16.20
2018-08-22T05:32:09.004Z,16.30
2018-08-22T05:34:37.320Z,16.30
2018-08-22T05:37:05.667Z,16.40
2018-08-22T05:39:33.973Z,16.40
2018-08-22T05:42:02.409Z,16.50
2018-08-22T05:44:30.720Z,16.60
2018-08-22T05:46:59.076Z,16.60
2018-08-22T05:49:27.393Z,16.70
2018-08-22T05:51:55.823Z,16.80
2018-08-22T05:54:24.157Z,16.80
2018-08-22T05:56:52.496Z,16.90
2018-08-22T05:59:20.806Z,17.00
2018-08-22T06:01:49.166Z,17.10
2018-08-22T06:04:17.480Z,17.30
2018-08-22T06:06:45.829Z,17.40
2018-08-22T06:09:14.209Z,17.50
2018-08-22T06:11:43.804Z,17.60
2018-08-22T06:14:12.356Z,17.80
2018-08-22T06:16:40.673Z,18.00
2018-08-22T06:19:09.024Z,18.10
2018-08-22T06:21:37.337Z,18.20
2018-08-22T06:24:05.745Z,18.40
2018-08-22T06:26:34.139Z,18.60
2018-08-22T06:29:02.532Z,18.70
2018-08-22T06:31:30.852Z,18.90
2018-08-22T06:33:59.188Z,19.10
2018-08-22T06:36:27.533Z,19.20
2018-08-22T06:38:55.878Z,19.40
2018-08-22T06:41:24.188Z,19.50
2018-08-22T06:43:52.549Z,19.70
2018-08-22T06:46:20.858Z,19.80
2018-08-22T06:48:49.200Z,20.00
2018-08-22T06:51:17.548Z,20.10
2018-08-22T06:53:45.889Z,20.30
2018-08-22T06:56:14.231Z,20.40
2018-08-22T06:58:42.571Z,20.50
2018-08-22T07:01:10.893Z,20.70
2018-08-22T07:03:39.244Z,20.80
2018-08-22T07:06:07.559Z,20.90
2018-08-22T07:08:35.907Z,21.00
2018-08-22T07:11:04.220Z,21.10
2018-08-22T07:13:32.585Z,21.30
2018-08-22T07:16:00.908Z,21.40
2018-08-22T07:18:29.284Z,21.60
2018-08-22T07:20:57.604Z,21.70
2018-08-22T07:23:25.993Z,21.80
2018-08-22T07:25:54.351Z,22.00
2018-08-22T07:28:22.699Z,22.10
2018-08-22T07:30:51.029Z,22.30
2018-08-22T07:33:19.411Z,22.40
2018-08-22T07:35:47.803Z,22.60
2018-08-22T07:38:16.124Z,22.80
2018-08-22T07:40:44.472Z,23.00
2018-08-22T07:43:12.836Z,23.20
2018-08-22T07:45:41.155Z,23.40
2018-08-22T07:48:09.497Z,23.50
2018-08-22T07:50:37.807Z,23.70
2018-08-22T07:53:06.455Z,23.80
2018-08-22T07:55:36.901Z,23.90
2018-08-22T07:58:05.303Z,24.00
2018-08-22T08:00:33.648Z,24.20
2018-08-22T08:03:02.025Z,24.30
2018-08-22T08:05:30.348Z,24.40
2018-08-22T08:07:58.984Z,24.50
2018-08-22T08:10:31.845Z,24.70
2018-08-22T08:13:00.597Z,24.80
2018-08-22T08:15:28.937Z,24.90
2018-08-22T08:17:57.804Z,25.00
2018-08-22T08:20:26.149Z,25.10
2018-08-22T08:22:54.461Z,25.30
2018-08-22T08:25:22.808Z,25.40
2018-08-22T08:27:51.196Z,25.40
2018-08-22T08:30:19.532Z,25.50
2018-08-22T08:32:47.845Z,25.70
2018-08-22T08:35:16.216Z,25.90
2018-08-22T08:37:44.560Z,26.00
2018-08-22T08:40:12.908Z,26.20
2018-08-22T08:42:41.223Z,26.30
2018-08-22T08:45:10.737Z,26.30
2018-08-22T08:47:39.065Z,26.30
2018-08-22T08:50:07.416Z,26.50
2018-08-22T08:52:35.939Z,26.60
2018-08-22T08:55:04.300Z,26.80
2018-08-22T08:57:32.900Z,27.00
2018-08-22T09:00:01.465Z,27.10
2018-08-22T09:02:29.818Z,27.30
2018-08-22T09:04:58.148Z,27.40
2018-08-22T09:07:26.460Z,27.50
2018-08-22T09:09:54.828Z,27.60
2018-08-22T09:12:23.249Z,27.70
2018-08-22T09:14:51.517Z,27.90
2018-08-22T09:17:19.887Z,27.90
2018-08-22T09:19:48.249Z,27.90
2018-08-22T09:22:16.620Z,27.90
2018-08-22T09:24:44.943Z,27.90
2018-08-22T09:27:13.253Z,28.00
2018-08-22T09:29:41.649Z,28.00
2018-08-22T09:32:09.953Z,28.00
2018-08-22T09:34:38.301Z,28.20
2018-08-22T09:37:06.605Z,28.40
2018-08-22T09:39:34.978Z,28.50
2018-08-22T09:42:03.272Z,28.60
2018-08-22T09:44:31.615Z,28.80
2018-08-22T09:46:59.928Z,28.80
2018-08-22T09:49:28.273Z,28.90
2018-08-22T09:51:56.588Z,29.10
2018-08-22T09:54:24.948Z,29.10
2018-08-22T09:56:54.176Z,29.10
2018-08-22T09:59:22.480Z,29.20
2018-08-22T10:01:50.815Z,29.30
2018-08-22T10:04:19.152Z,29.40
2018-08-22T10:06:48.755Z,29.40
2018-08-22T10:09:19.808Z,29.50
2018-08-22T10:11:48.152Z,29.50
2018-08-22T10:14:16.472Z,29.50
2018-08-22T10:16:44.816Z,29.60
2018-08-22T10:19:13.121Z,29.70
2018-08-22T10:21:41.491Z,29.80
2018-08-22T10:24:09.816Z,29.90
2018-08-22T10:26:38.228Z,29.90
2018-08-22T10:29:06.481Z,29.90
2018-08-22T10:31:34.824Z,30.00
2018-08-22T10:34:03.144Z,30.00
2018-08-22T10:36:31.496Z,30.00
2018-08-22T10:38:59.820Z,30.00
2018-08-22T10:41:28.259Z,30.00
2018-08-22T10:43:56.576Z,30.00
2018-08-22T10:46:24.924Z,30.10
2018-08-22T10:48:53.295Z,30.20
2018-08-22T10:51:21.680Z,30.30
2018-08-22T10:53:50.034Z,30.40
2018-08-22T10:56:18.360Z,30.40
2018-08-22T10:58:46.671Z,30.30
2018-08-22T11:01:15.009Z,30.30
2018-08-22T11:03:43.317Z,30.30
2018-08-22T11:06:11.660Z,30.30
2018-08-22T11:08:39.975Z,30.30
2018-08-22T11:11:08.316Z,30.40
2018-08-22T11:13:36.627Z,30.50
2018-08-22T11:16:05.070Z,30.60
2018-08-22T11:18:33.309Z,30.60
2018-08-22T11:21:12.947Z,30.60
2018-08-22T11:23:52.485Z,30.70
2018-08-22T11:26:32.178Z,30.80
2018-08-22T11:29:11.764Z,30.90
2018-08-22T11:31:51.356Z,31.00
2018-08-22T11:34:30.981Z,31.00
2018-08-22T11:37:04.122Z,31.10
2018-08-22T11:39:32.573Z,31.20
2018-08-22T11:42:01.161Z,31.20
2018-08-22T11:44:29.829Z,31.20
2018-08-22T11:46:58.204Z,31.10
2018-08-22T11:49:26.792Z,31.10
2018-08-22T11:51:55.404Z,31.10
2018-08-22T11:54:23.711Z,31.20
2018-08-22T11:56:52.148Z,31.20
2018-08-22T11:59:20.815Z,31.20
2018-08-22T12:01:49.470Z,31.20
2018-08-22T12:04:17.748Z,31.20
2018-08-22T12:06:46.089Z,31.00
2018-08-22T12:09:14.405Z,31.00
2018-08-22T12:11:43.156Z,30.90
2018-08-22T12:14:11.492Z,30.70
2018-08-22T12:16:40.436Z,30.70
2018-08-22T12:19:09.288Z,30.60
2018-08-22T12:21:37.999Z,30.60
2018-08-22T12:24:06.327Z,30.60
2018-08-22T12:26:34.870Z,30.70
2018-08-22T12:29:03.418Z,30.80
2018-08-22T12:31:31.736Z,31.00
2018-08-22T12:34:00.112Z,31.20
2018-08-22T12:36:28.433Z,31.20
2018-08-22T12:38:56.777Z,31.30
2018-08-22T12:41:25.480Z,31.40
2018-08-22T12:43:53.830Z,31.50
2018-08-22T12:46:22.145Z,31.50
2018-08-22T12:48:50.487Z,31.50
2018-08-22T12:51:18.812Z,31.60
2018-08-22T12:53:47.152Z,31.60
2018-08-22T12:56:15.465Z,31.50
2018-08-22T12:58:43.819Z,31.30
2018-08-22T13:01:12.129Z,31.30
2018-08-22T13:03:40.501Z,31.40
2018-08-22T13:06:08.809Z,31.50
2018-08-22T13:08:37.164Z,31.50
2018-08-22T13:11:05.496Z,31.40
2018-08-22T13:13:33.823Z,31.30
2018-08-22T13:16:02.132Z,31.20
2018-08-22T13:18:30.476Z,31.00
2018-08-22T13:20:58.791Z,31.00
2018-08-22T13:23:27.132Z,31.10
2018-08-22T13:25:55.449Z,31.10
2018-08-22T13:28:23.798Z,31.20
2018-08-22T13:30:52.135Z,31.30
2018-08-22T13:33:20.501Z,31.30
2018-08-22T13:35:48.823Z,31.20
2018-08-22T13:38:17.173Z,31.00
2018-08-22T13:40:45.508Z,30.90
2018-08-22T13:43:13.885Z,30.80
2018-08-22T13:45:42.212Z,30.80
2018-08-22T13:48:10.560Z,30.90
2018-08-22T13:50:38.885Z,31.00
2018-08-22T13:53:07.345Z,30.90
2018-08-22T13:55:35.663Z,30.80
2018-08-22T13:58:04.008Z,30.90
2018-08-22T14:00:32.320Z,30.90
2018-08-22T14:03:00.657Z,30.90
2018-08-22T14:05:28.978Z,30.90
2018-08-22T14:07:57.321Z,30.80
2018-08-22T14:10:25.635Z,30.70
2018-08-22T14:12:53.989Z,30.70
2018-08-22T14:15:22.317Z,30.70
2018-08-22T14:17:50.665Z,30.70
2018-08-22T14:20:19.012Z,30.80
2018-08-22T14:22:47.364Z,30.90
2018-08-22T14:25:15.672Z,31.00
2018-08-22T14:27:43.977Z,31.00
2018-08-22T14:30:12.423Z,31.00
2018-08-22T14:32:40.735Z,31.10
2018-08-22T14:35:09.077Z,31.00
2018-08-22T14:37:37.472Z,30.90
2018-08-22T14:40:05.888Z,30.70
2018-08-22T14:42:34.200Z,30.60
2018-08-22T14:45:02.622Z,30.40
2018-08-22T14:47:30.864Z,30.30
2018-08-22T14:49:59.200Z,30.20
2018-08-22T14:52:27.509Z,30.00
2018-08-22T14:54:55.946Z,30.00
2018-08-22T14:57:24.281Z,29.90
2018-08-22T14:59:52.628Z,29.80
2018-08-22T15:02:20.994Z,29.80
2018-08-22T15:04:50.856Z,29.70
2018-08-22T15:07:19.169Z,29.60
2018-08-22T15:09:47.548Z,29.50
2018-08-22T15:12:15.895Z,29.20
2018-08-22T15:14:44.196Z,28.80
2018-08-22T15:17:12.532Z,28.40
2018-08-22T15:19:40.857Z,28.10
2018-08-22T15:22:09.192Z,27.70
2018-08-22T15:24:37.504Z,27.50
2018-08-22T15:27:05.880Z,27.30
2018-08-22T15:29:34.196Z,27.10
2018-08-22T15:32:02.539Z,26.60
2018-08-22T15:34:42.081Z,25.90
2018-08-22T15:37:10.425Z,25.40
2018-08-22T15:39:38.739Z,24.80
2018-08-22T15:42:07.090Z,24.40
2018-08-22T15:44:35.512Z,24.10
2018-08-22T15:47:03.824Z,23.90
2018-08-22T15:49:32.210Z,23.70
2018-08-22T15:52:00.525Z,23.60
2018-08-22T15:54:28.881Z,23.50
2018-08-22T15:56:57.197Z,23.30
2018-08-22T15:59:25.542Z,23.10
2018-08-22T16:01:53.990Z,23.00
2018-08-22T16:04:22.337Z,23.00
2018-08-22T16:07:21.400Z,22.90
2018-08-22T16:09:49.748Z,22.90
2018-08-22T16:12:18.064Z,22.80
2018-08-22T16:14:46.412Z,22.70
2018-08-22T16:17:14.724Z,22.70
2018-08-22T16:19:43.065Z,22.70
2018-08-22T16:22:11.392Z,22.80
2018-08-22T16:24:41.434Z,22.80
2018-08-22T16:27:09.772Z,22.80
2018-08-22T16:29:38.116Z,22.70
2018-08-22T16:32:06.555Z,22.60
2018-08-22T16:34:34.896Z,22.50
2018-08-22T16:37:03.237Z,22.40
2018-08-22T16:39:40.708Z,22.40
2018-08-22T16:42:09.607Z,22.40
2018-08-22T16:44:37.955Z,22.40
2018-08-22T16:47:06.320Z,22.40
2018-08-22T16:49:34.700Z,22.40
2018-08-22T16:52:03.017Z,22.50
2018-08-22T16:54:31.375Z,22.60
2018-08-22T16:56:59.684Z,22.70
2018-08-22T16:59:28.027Z,22.80
2018-08-22T17:01:56.394Z,23.00
2018-08-22T17:04:24.711Z,23.00
2018-08-22T17:06:53.063Z,23.00
2018-08-22T17:09:21.414Z,23.10
2018-08-22T17:11:49.736Z,23.20
2018-08-22T17:14:18.074Z,23.40
2018-08-22T17:16:46.396Z,23.40
2018-08-22T17:19:14.740Z,23.50
2018-08-22T17:21:43.100Z,23.60
2018-08-22T17:24:11.448Z,23.60
2018-08-22T17:26:39.760Z,23.60
2018-08-22T17:29:08.109Z,23.70
2018-08-22T17:31:36.462Z,23.70
2018-08-22T17:34:04.897Z,23.80
2018-08-22T17:36:33.213Z,23.90
2018-08-22T17:39:02.269Z,23.90
2018-08-22T17:41:30.775Z,23.90
2018-08-22T17:44:09.900Z,24.00
2018-08-22T17:46:40.452Z,24.00
2018-08-22T17:49:08.795Z,24.00
2018-08-22T17:52:04.248Z,24.00
2018-08-22T17:54:32.636Z,23.90
2018-08-22T17:57:13.084Z,23.70
2018-08-22T17:59:42.433Z,23.70
2018-08-22T18:02:10.773Z,23.60
2018-08-22T18:05:11.988Z,23.60
2018-08-22T18:07:40.328Z,23.50
2018-08-22T18:10:08.656Z,23.50
2018-08-22T18:12:37.004Z,23.40
2018-08-22T18:15:05.365Z,23.30
2018-08-22T18:17:33.739Z,23.20
2018-08-22T18:20:02.086Z,23.10
2018-08-22T18:22:35.352Z,23.00
2018-08-22T18:25:03.711Z,23.00
2018-08-22T18:27:32.196Z,23.00
2018-08-22T18:30:00.393Z,22.90
2018-08-22T18:32:28.745Z,22.90
2018-08-22T18:35:06.639Z,22.90
2018-08-22T18:37:35.000Z,22.80
2018-08-22T18:40:19.145Z,22.90
2018-08-22T18:42:48.575Z,22.80
2018-08-22T18:45:17.129Z,22.70
2018-08-22T18:47:45.476Z,22.70
2018-08-22T18:50:13.801Z,22.60
2018-08-22T18:52:42.224Z,22.60
2018-08-22T18:55:10.548Z,22.50
2018-08-22T18:57:38.883Z,22.50
2018-08-22T19:00:08.566Z,22.40
2018-08-22T19:02:36.883Z,22.40
2018-08-22T19:05:17.713Z,22.30
2018-08-22T19:07:58.304Z,22.30
2018-08-22T19:10:29.402Z,22.30
2018-08-22T19:13:01.812Z,22.20
2018-08-22T19:15:30.133Z,22.20
2018-08-22T19:17:58.504Z,22.10
2018-08-22T19:20:26.859Z,22.10
2018-08-22T19:22:55.219Z,22.10
2018-08-22T19:25:23.661Z,22.00
2018-08-22T19:27:51.908Z,21.90
2018-08-22T19:30:20.259Z,21.80
2018-08-22T19:32:48.581Z,21.80
2018-08-22T19:35:16.928Z,21.80
2018-08-22T19:37:49.480Z,21.80
2018-08-22T19:40:17.835Z,21.70
2018-08-22T19:42:46.148Z,21.70
2018-08-22T19:45:14.504Z,21.60
2018-08-22T19:47:42.822Z,21.50
2018-08-22T19:50:11.167Z,21.50
2018-08-22T19:52:39.488Z,21.40
2018-08-22T19:55:07.945Z,21.40
2018-08-22T19:57:39.664Z,21.30
2018-08-22T20:00:09.599Z,21.30
2018-08-22T20:02:38.173Z,21.20
2018-08-22T20:05:07.768Z,21.20
2018-08-22T20:07:36.268Z,21.20
2018-08-22T20:10:04.696Z,21.20
2018-08-22T20:12:43.695Z,21.10
2018-08-22T20:15:12.053Z,21.10
2018-08-22T20:17:40.399Z,20.90
2018-08-22T20:20:10.168Z,20.80
2018-08-22T20:22:41.900Z,20.70
2018-08-22T20:25:10.708Z,20.60
2018-08-22T20:27:39.371Z,20.60
2018-08-22T20:30:15.896Z,20.50
2018-08-22T20:32:58.655Z,20.50
2018-08-22T20:35:27.800Z,20.40
2018-08-22T20:37:56.483Z,20.40
2018-08-22T20:40:24.989Z,20.30
2018-08-22T20:42:53.472Z,20.30
2018-08-22T20:45:26.967Z,20.20
2018-08-22T20:48:11.028Z,20.20
2018-08-22T20:50:40.707Z,20.10
2018-08-22T20:53:10.384Z,20.10
2018-08-22T20:55:38.788Z,20.10
2018-08-22T20:58:07.137Z,20.00
2018-08-22T21:00:36.780Z,20.00
2018-08-22T21:03:05.194Z,20.00
2018-08-22T21:05:33.489Z,20.00
2018-08-22T21:08:01.810Z,20.00
2018-08-22T21:10:30.156Z,20.00
2018-08-22T21:12:58.498Z,19.90
2018-08-22T21:15:26.848Z,19.90
2018-08-22T21:17:55.163Z,19.90
2018-08-22T21:20:24.441Z,19.90
2018-08-22T21:22:53.625Z,19.90
2018-08-22T21:25:22.005Z,19.90
2018-08-22T21:27:50.980Z,19.90
2018-08-22T21:30:19.365Z,19.90
2018-08-22T21:32:48.545Z,19.80
2018-08-22T21:35:20.057Z,19.80
2018-08-22T21:37:48.382Z,19.70
2018-08-22T21:40:16.729Z,19.70
2018-08-22T21:42:45.045Z,19.70
2018-08-22T21:45:13.388Z,19.70
2018-08-22T21:47:41.714Z,19.60
2018-08-22T21:50:10.073Z,19.60
2018-08-22T21:53:00.473Z,19.50
2018-08-22T21:55:36.052Z,19.50
2018-08-22T21:58:05.020Z,19.50
2018-08-22T22:00:33.399Z,19.50
2018-08-22T22:03:01.712Z,19.50
2018-08-22T22:05:41.369Z,19.50
2018-08-22T22:08:09.697Z,19.50
2018-08-22T22:10:38.029Z,19.40
2018-08-22T22:13:06.708Z,19.40
2018-08-22T22:15:40.521Z,19.40
2018-08-22T22:18:08.901Z,19.30
2018-08-22T22:20:37.214Z,19.30
2018-08-22T22:23:05.635Z,19.30
2018-08-22T22:25:33.949Z,19.30
2018-08-22T22:28:02.377Z,19.30
2018-08-22T22:30:30.693Z,19.20
2018-08-22T22:33:00.355Z,19.20
2018-08-22T22:35:34.001Z,19.20
2018-08-22T22:38:08.034Z,19.20
2018-08-22T22:40:36.696Z,19.20
2018-08-22T22:43:07.774Z,19.20
2018-08-22T22:45:36.329Z,19.20
2018-08-22T22:48:04.812Z,19.20
2018-08-22T22:50:33.157Z,19.20
2018-08-22T22:53:01.488Z,19.20
2018-08-22T22:55:29.948Z,19.10
2018-08-22T22:57:58.345Z,19.10
2018-08-22T23:00:29.055Z,19.10
2018-08-22T23:03:02.869Z,19.10
2018-08-22T23:05:31.748Z,19.10
2018-08-22T23:08:01.661Z,19.00
2018-08-22T23:10:30.044Z,19.00
2018-08-22T23:12:58.429Z,19.00
2018-08-22T23:15:27.931Z,19.00
2018-08-22T23:18:00.480Z,19.00
2018-08-22T23:20:36.389Z,19.00
2018-08-22T23:23:10.191Z,19.00
2018-08-22T23:25:38.569Z,19.00
2018-08-22T23:28:07.008Z,19.00
2018-08-22T23:30:37.175Z,18.90
2018-08-22T23:33:06.322Z,18.90
2018-08-22T23:35:35.752Z,18.90
2018-08-22T23:38:06.188Z,18.90
2018-08-22T23:40:35.491Z,18.80
2018-08-22T23:43:03.820Z,18.80
2018-08-22T23:45:35.768Z,18.80
2018-08-22T23:48:04.596Z,18.80
2018-08-22T23:50:56.168Z,18.80
2018-08-22T23:53:27.449Z,18.80
2018-08-22T23:56:10.107Z,18.70
2018-08-22T23:58:38.968Z,18.70
